Time;durP1;ratioP1;P1;durP2;ratioP2;P2;SDS_P1;SDS_P2;PMS_P1;PMS_P2;Temp;Humidity;BMP_temperature;BMP_pressure;BME280_temperature;BME280_humidity;BME280_pressure;Samples;Min_cycle;Max_cycle;Signal;HPM_P1;HPM_P2
2021/10/08 03:38:42;;;;;;;;;;;;;;;7.73;100.00;100732.66;5370704;23;19972;-82
2021/10/08 03:41:14;;;;;;;;;;;;;;;7.73;100.00;100732.66;4968092;28;20325;-82
2021/10/08 03:43:41;;;;;;;;;;;;;;;7.77;100.00;100730.81;4967228;28;20028;-82
2021/10/08 03:46:08;;;;;;;;;;;;;;;7.78;100.00;100722.03;4967247;28;19974;-83
2021/10/08 03:48:58;;;;;;;;;;;;;;;7.82;100.00;100723.72;4967343;28;19961;-83
2021/10/08 03:51:21;;;;;;;;;;;;;;;7.27;100.00;100728.06;4967751;28;20370;-83
2021/10/08 03:53:46;;;;;;;;;;;;;;;5.67;100.00;100729.78;4965646;28;19922;-84
2021/10/08 03:56:12;;;;;;;;;;;;;;;5.22;100.00;100738.84;4966801;28;20357;-82
2021/10/08 03:58:37;;;;;;;;;;;;;;;4.88;100.00;100740.75;4966914;28;19931;-82
2021/10/08 04:01:02;;;;;;;;;;;;;;;4.69;100.00;100739.94;4967382;28;19918;-83
2021/10/08 04:03:27;;;;;;;;;;;;;;;4.47;100.00;100733.91;4967080;28;19976;-82
2021/10/08 04:05:53;;;;;;;;;;;;;;;4.47;100.00;100744.41;4966505;28;20329;-82
2021/10/08 04:08:18;;;;;;;;;;;;;;;4.33;100.00;100740.06;4965460;28;19922;-82
2021/10/08 04:10:43;;;;;;;;;;;;;;;4.21;100.00;100750.56;4966944;28;19957;-83
2021/10/08 04:13:08;;;;;;;;;;;;;;;4.16;100.00;100747.97;4966528;28;19922;-81
2021/10/08 04:15:34;;;;;;;;;;;;;;;4.01;100.00;100747.97;4966940;28;20423;-81
2021/10/08 04:17:59;;;;;;;;;;;;;;;3.98;100.00;100753.22;4966838;28;19966;-81
2021/10/08 04:20:24;;;;;;;;;;;;;;;3.92;100.00;100753.22;4966291;28;19965;-81
2021/10/08 04:22:49;;;;;;;;;;;;;;;3.82;100.00;100750.59;4964890;28;19922;-82
2021/10/08 04:25:15;;;;;;;;;;;;;;;3.84;100.00;100754.97;4966876;28;20373;-82
2021/10/08 04:27:40;;;;;;;;;;;;;;;4.09;100.00;100755.84;4965275;28;19930;-83
2021/10/08 04:30:05;;;;;;;;;;;;;;;4.22;100.00;100757.56;4966096;28;19965;-82
2021/10/08 04:32:30;;;;;;;;;;;;;;;4.05;100.00;100757.56;4965999;28;20374;-82
2021/10/08 04:34:56;;;;;;;;;;;;;;;4.01;100.00;100763.72;4965250;28;20004;-82
2021/10/08 04:37:21;;;;;;;;;;;;;;;3.87;100.00;100760.22;4965185;28;19918;-82
2021/10/08 04:39:46;;;;;;;;;;;;;;;3.84;100.00;100755.84;4965734;28;20397;-82
2021/10/08 04:42:11;;;;;;;;;;;;;;;3.72;100.00;100753.19;4965573;28;20242;-82
2021/10/08 04:44:37;;;;;;;;;;;;;;;3.71;100.00;100751.47;4965081;28;19929;-82
2021/10/08 04:47:03;;;;;;;;;;;;;;;3.60;100.00;100756.69;4965050;28;19918;-81
2021/10/08 04:49:28;;;;;;;;;;;;;;;3.52;100.00;100753.19;4966192;28;19918;-81
2021/10/08 04:51:54;;;;;;;;;;;;;;;3.48;100.00;100752.31;4965884;28;20326;-82
2021/10/08 04:54:19;;;;;;;;;;;;;;;3.38;100.00;100754.06;4964727;28;20369;-82
2021/10/08 04:56:44;;;;;;;;;;;;;;;3.45;100.00;100749.69;4964276;28;20000;-81
2021/10/08 04:59:09;;;;;;;;;;;;;;;3.38;100.00;100759.31;4966079;28;19922;-81
2021/10/08 05:01:35;;;;;;;;;;;;;;;3.31;100.00;100748.81;4965342;28;19915;-85
2021/10/08 05:04:00;;;;;;;;;;;;;;;3.23;100.00;100756.63;4965520;28;19977;-82
2021/10/08 05:06:25;;;;;;;;;;;;;;;3.16;100.00;100754.84;4965722;28;19917;-82
2021/10/08 05:08:50;;;;;;;;;;;;;;;3.24;100.00;100754.03;4963013;28;20501;-83
2021/10/08 05:11:16;;;;;;;;;;;;;;;3.19;100.00;100754.88;4965688;28;19922;-84
2021/10/08 07:49:06;;;;;;;;;;;;;;;4.03;100.00;100810.91;5121679;23;19927;-85
2021/10/08 07:51:32;;;;;;;;;;;;;;;4.05;100.00;100809.16;4984712;28;19926;-84
2021/10/08 07:53:58;;;;;;;;;;;;;;;4.05;100.00;100809.16;4957762;28;19941;-85
2021/10/08 07:56:23;;;;;;;;;;;;;;;4.04;100.00;100805.69;4963306;28;20004;-83
2021/10/08 07:58:49;;;;;;;;;;;;;;;4.06;100.00;100809.16;4959724;28;20377;-84
2021/10/08 08:01:14;;;;;;;;;;;;;;;4.11;100.00;100810.03;4960038;28;19965;-83
2021/10/08 08:03:39;;;;;;;;;;;;;;;4.11;100.00;100802.16;4960509;28;20385;-85
2021/10/08 08:06:04;;;;;;;;;;;;;;;4.11;100.00;100806.56;4963686;28;19918;-83
2021/10/08 08:08:30;;;;;;;;;;;;;;;4.12;100.00;100801.31;4962840;28;19918;-84
2021/10/08 08:10:55;;;;;;;;;;;;;;;4.11;100.00;100788.19;4985668;28;19930;-86
2021/10/08 08:13:21;;;;;;;;;;;;;;;4.18;100.00;100803.94;4961424;28;19914;-83
2021/10/08 08:15:46;;;;;;;;;;;;;;;4.14;100.00;100798.69;4963035;28;20369;-85
2021/10/08 08:18:11;;;;;;;;;;;;;;;4.14;100.00;100794.28;4964364;28;19918;-83
2021/10/08 08:20:37;;;;;;;;;;;;;;;4.14;100.00;100798.69;4967278;28;20005;-84
2021/10/08 08:23:02;;;;;;;;;;;;;;;4.21;100.00;100797.78;4965926;28;19918;-83
2021/10/08 08:25:27;;;;;;;;;;;;;;;4.20;100.00;100798.69;4966384;28;19958;-84
2021/10/08 08:27:52;;;;;;;;;;;;;;;4.18;100.00;100797.81;4966209;28;19933;-83
2021/10/08 08:30:18;;;;;;;;;;;;;;;4.21;100.00;100796.91;4966170;28;19919;-82
2021/10/08 08:32:43;;;;;;;;;;;;;;;4.24;100.00;100796.91;4965679;28;19922;-85
2021/10/08 08:35:08;;;;;;;;;;;;;;;4.23;100.00;100793.44;4966254;28;19919;-83
2021/10/08 08:37:34;;;;;;;;;;;;;;;4.28;100.00;100799.53;4965942;28;19965;-84
2021/10/08 08:40:02;;;;;;;;;;;;;;;4.28;100.00;100798.69;4989162;28;19918;-83
2021/10/08 08:42:27;;;;;;;;;;;;;;;4.26;100.00;100795.16;4964714;28;19926;-86
2021/10/08 08:44:53;;;;;;;;;;;;;;;4.25;100.00;100790.81;4966217;28;19918;-85
2021/10/08 08:47:19;;;;;;;;;;;;;;;4.24;100.00;100786.44;4964913;28;19924;-85
2021/10/08 08:49:45;;;;;;;;;;;;;;;4.26;100.00;100782.94;4965655;28;19928;-85
2021/10/08 08:52:10;;;;;;;;;;;;;;;4.26;100.00;100780.31;4966220;28;20330;-82
2021/10/08 08:54:36;;;;;;;;;;;;;;;4.25;100.00;100788.19;4965488;28;20008;-83
2021/10/08 08:57:11;;;;;;;;;;;;;;;4.28;100.00;100777.69;4965292;28;19989;-83
2021/10/08 08:59:55;;;;;;;;;;;;;;;4.30;100.00;100784.66;4988459;28;19922;-83
2021/10/08 09:02:23;;;;;;;;;;;;;;;4.32;100.00;100782.03;4964335;28;20186;-83
2021/10/08 09:04:48;;;;;;;;;;;;;;;4.30;100.00;100775.94;4964288;28;20035;-82
2021/10/08 09:07:14;;;;;;;;;;;;;;;4.28;100.00;100780.31;4965946;28;20369;-83
2021/10/08 09:09:39;;;;;;;;;;;;;;;4.29;100.00;100774.16;4965626;28;19929;-82
2021/10/08 09:12:05;;;;;;;;;;;;;;;4.26;100.00;100777.69;4965541;28;19922;-83
2021/10/08 09:14:30;;;;;;;;;;;;;;;4.28;100.00;100778.56;4965477;28;20374;-83
2021/10/08 09:17:09;;;;;;;;;;;;;;;4.28;100.00;100767.19;4963921;28;19918;-83
2021/10/08 09:19:44;;;;;;;;;;;;;;;4.29;100.00;100775.06;4960041;28;20381;-85
2021/10/08 09:22:11;;;;;;;;;;;;;;;4.38;100.00;100773.31;4980179;28;20017;-84
2021/10/08 09:24:36;;;;;;;;;;;;;;;4.38;100.00;100771.53;4965807;28;19918;-84
2021/10/08 09:27:11;;;;;;;;;;;;;;;4.36;100.00;100770.69;4964228;28;19930;-85
2021/10/08 09:29:47;;;;;;;;;;;;;;;4.41;100.00;100771.53;4964417;28;19965;-84
2021/10/08 09:32:13;;;;;;;;;;;;;;;4.38;100.00;100768.06;4962669;28;19930;-83
2021/10/08 09:34:44;;;;;;;;;;;;;;;4.36;100.00;100770.69;4964853;28;19922;-85
2021/10/08 09:37:13;;;;;;;;;;;;;;;4.39;100.00;100770.66;4963881;28;19969;-86
2021/10/08 09:39:39;;;;;;;;;;;;;;;4.36;100.00;100761.03;4964863;28;19918;-83
2021/10/08 09:42:07;;;;;;;;;;;;;;;4.39;100.00;100767.16;4965181;28;19922;-83
2021/10/08 09:44:37;;;;;;;;;;;;;;;4.35;100.00;100761.03;4964858;28;19922;-84
2021/10/08 09:47:10;;;;;;;;;;;;;;;4.41;100.00;100760.19;4963702;28;19923;-82
2021/10/08 09:49:40;;;;;;;;;;;;;;;4.39;100.00;100754.94;4965100;28;19922;-83
2021/10/08 09:52:17;;;;;;;;;;;;;;;4.41;100.00;100758.41;4964935;28;19918;-86
2021/10/08 09:54:48;;;;;;;;;;;;;;;4.42;100.00;100754.94;4964741;28;19921;-83
2021/10/08 09:57:13;;;;;;;;;;;;;;;4.38;100.00;100752.31;4963255;28;19923;-83
2021/10/08 09:59:39;;;;;;;;;;;;;;;4.43;100.00;100754.03;4964296;28;19926;-85
2021/10/08 10:02:07;;;;;;;;;;;;;;;4.42;100.00;100754.94;4963471;28;20337;-83
2021/10/08 10:04:46;;;;;;;;;;;;;;;4.44;100.00;100747.03;4964308;28;19966;-85
2021/10/08 10:07:13;;;;;;;;;;;;;;;4.43;100.00;100742.66;4964662;28;20036;-84
2021/10/08 10:09:38;;;;;;;;;;;;;;;4.48;100.00;100738.28;4965107;28;19914;-82
2021/10/08 10:12:03;;;;;;;;;;;;;;;4.47;100.00;100745.28;4964311;28;19918;-83
2021/10/08 10:14:29;;;;;;;;;;;;;;;4.50;100.00;100747.00;4964560;28;19914;-84
2021/10/08 10:16:54;;;;;;;;;;;;;;;4.53;100.00;100737.41;4964366;28;20286;-83
2021/10/08 10:19:23;;;;;;;;;;;;;;;4.50;100.00;100740.03;4964123;28;20314;-85
2021/10/08 10:21:49;;;;;;;;;;;;;;;4.53;100.00;100737.41;4964451;28;19960;-84
2021/10/08 10:24:14;;;;;;;;;;;;;;;4.51;100.00;100739.13;4964381;28;20145;-83
2021/10/08 10:26:39;;;;;;;;;;;;;;;4.49;100.00;100740.88;4964034;28;19919;-83
2021/10/08 10:29:08;;;;;;;;;;;;;;;4.59;100.00;100746.97;4963391;28;20198;-83
2021/10/08 10:31:35;;;;;;;;;;;;;;;4.61;100.00;100733.84;4964329;28;19922;-83
2021/10/08 10:34:02;;;;;;;;;;;;;;;4.57;100.00;100733.00;4963024;28;20427;-84
2021/10/08 10:36:28;;;;;;;;;;;;;;;4.58;100.00;100739.13;4964154;28;20453;-83
2021/10/08 10:39:12;;;;;;;;;;;;;;;4.54;100.00;100739.13;4963671;28;19992;-83
2021/10/08 10:41:38;;;;;;;;;;;;;;;4.58;100.00;100739.13;4963897;28;19922;-83
2021/10/08 10:44:39;;;;;;;;;;;;;;;4.57;100.00;100727.75;4963621;28;20389;-83
2021/10/08 10:47:17;;;;;;;;;;;;;;;4.60;100.00;100727.75;4961723;28;19929;-82
2021/10/08 10:49:49;;;;;;;;;;;;;;;4.59;100.00;100727.75;4963467;28;19933;-82
2021/10/08 10:52:16;;;;;;;;;;;;;;;4.49;100.00;100727.78;4963266;28;19935;-83
2021/10/08 10:54:42;;;;;;;;;;;;;;;4.51;100.00;100726.00;4964351;28;19919;-84
2021/10/08 10:57:10;;;;;;;;;;;;;;;4.55;100.00;100727.75;4964204;28;19925;-83
2021/10/08 10:59:45;;;;;;;;;;;;;;;4.57;100.00;100725.13;4962374;28;20369;-84
2021/10/08 11:02:15;;;;;;;;;;;;;;;4.53;100.00;100726.91;4962704;28;20385;-83
2021/10/08 11:04:44;;;;;;;;;;;;;;;4.51;100.00;100718.13;4963870;28;19918;-85
2021/10/08 11:07:11;;;;;;;;;;;;;;;4.51;100.00;100714.66;4963695;28;19925;-83
2021/10/08 11:09:37;;;;;;;;;;;;;;;4.60;100.00;100722.50;4963235;28;20374;-84
2021/10/08 11:12:21;;;;;;;;;;;;;;;4.58;100.00;100728.63;4964458;28;20001;-83
2021/10/08 11:14:46;;;;;;;;;;;;;;;4.61;100.00;100718.09;4963371;28;19929;-83
2021/10/08 11:17:30;;;;;;;;;;;;;;;4.60;100.00;100719.00;4962891;28;19914;-85
2021/10/08 11:19:57;;;;;;;;;;;;;;;4.62;100.00;100712.84;4963208;28;19922;-83
2021/10/08 11:22:41;;;;;;;;;;;;;;;4.62;100.00;100719.88;4963905;28;19918;-85
2021/10/08 11:25:06;;;;;;;;;;;;;;;4.69;100.00;100721.56;4963694;28;19918;-84
2021/10/08 11:27:32;;;;;;;;;;;;;;;4.62;100.00;100712.00;4963704;28;19918;-83
2021/10/08 11:30:01;;;;;;;;;;;;;;;4.63;100.00;100705.88;4963603;28;20396;-84
2021/10/08 11:32:26;;;;;;;;;;;;;;;4.60;100.00;100708.50;4962262;28;19918;-84
2021/10/08 11:34:53;;;;;;;;;;;;;;;4.65;100.00;100710.22;4963313;28;20058;-84
2021/10/08 11:37:18;;;;;;;;;;;;;;;4.63;100.00;100711.97;4963237;28;19933;-83
2021/10/08 11:39:45;;;;;;;;;;;;;;;4.66;100.00;100708.44;4964041;28;19919;-83
2021/10/08 11:42:17;;;;;;;;;;;;;;;4.57;100.00;100700.63;4963126;28;20263;-84
2021/10/08 11:45:04;;;;;;;;;;;;;;;4.60;100.00;100698.88;4963222;28;19995;-83
2021/10/08 11:47:34;;;;;;;;;;;;;;;4.58;100.00;100697.13;4962107;28;19922;-83
2021/10/08 11:52:45;;;;;;;;;;;;;;;4.60;100.00;100696.25;4964955;28;20298;-85
2021/10/08 11:55:18;;;;;;;;;;;;;;;4.70;100.00;100697.06;4966950;28;19918;-83
2021/10/08 11:57:51;;;;;;;;;;;;;;;4.68;100.00;100699.69;4965691;28;19925;-83
2021/10/08 12:00:17;;;;;;;;;;;;;;;4.66;100.00;100701.47;4966501;28;19922;-84
2021/10/08 12:03:03;;;;;;;;;;;;;;;4.66;100.00;100697.94;4964088;28;19922;-84
2021/10/08 12:05:42;;;;;;;;;;;;;;;4.64;100.00;100690.13;4965333;28;20258;-84
2021/10/08 12:08:08;;;;;;;;;;;;;;;4.63;100.00;100684.88;4967402;28;20420;-85
2021/10/08 12:10:33;;;;;;;;;;;;;;;4.70;100.00;100687.44;4966532;28;20017;-83
2021/10/08 12:12:59;;;;;;;;;;;;;;;4.67;100.00;100686.59;4989294;28;19925;-83
2021/10/08 12:15:33;;;;;;;;;;;;;;;4.69;100.00;100679.56;4966473;28;20297;-85
2021/10/08 12:17:59;;;;;;;;;;;;;;;4.67;100.00;100676.09;4965126;28;19973;-83
2021/10/08 12:20:26;;;;;;;;;;;;;;;4.65;100.00;100665.59;4966728;28;19922;-83
2021/10/08 12:23:11;;;;;;;;;;;;;;;4.63;100.00;100671.75;4966418;28;20374;-83
2021/10/08 12:25:36;;;;;;;;;;;;;;;4.62;100.00;100667.34;4966701;28;19926;-83
2021/10/08 12:28:01;;;;;;;;;;;;;;;4.66;100.00;100658.56;4966895;28;19923;-84
2021/10/08 12:30:27;;;;;;;;;;;;;;;4.65;100.00;100662.97;4966628;28;20449;-83
2021/10/08 12:33:02;;;;;;;;;;;;;;;4.60;100.00;100666.50;4964817;28;19969;-83
2021/10/08 12:35:28;;;;;;;;;;;;;;;4.59;100.00;100657.72;4966682;28;19925;-83
2021/10/08 12:37:57;;;;;;;;;;;;;;;4.69;100.00;100655.94;4965650;28;19923;-82
2021/10/08 12:40:22;;;;;;;;;;;;;;;4.71;100.00;100655.06;4966051;28;19981;-83
2021/10/08 12:42:58;;;;;;;;;;;;;;;4.73;100.00;100657.69;4964952;28;19919;-83
2021/10/08 12:45:43;;;;;;;;;;;;;;;4.78;100.00;100653.25;4966323;28;19923;-84
2021/10/08 12:48:16;;;;;;;;;;;;;;;4.75;100.00;100653.28;4964932;28;20340;-83
2021/10/08 12:50:41;;;;;;;;;;;;;;;5.03;100.00;100647.88;4965820;28;19922;-83
2021/10/08 12:53:16;;;;;;;;;;;;;;;5.24;100.00;100645.09;4966200;28;20003;-83
2021/10/08 12:55:42;;;;;;;;;;;;;;;5.51;100.00;100653.66;4965443;28;19922;-83
2021/10/08 12:58:17;;;;;;;;;;;;;;;5.83;100.00;100655.13;4965373;28;19918;-84
2021/10/08 13:00:44;;;;;;;;;;;;;;;6.08;100.00;100647.91;4965507;28;19918;-83
2021/10/08 13:03:27;;;;;;;;;;;;;;;6.29;100.00;100644.16;4964648;28;20426;-83
2021/10/08 13:05:54;;;;;;;;;;;;;;;6.43;100.00;100644.00;4965196;28;19918;-83
2021/10/08 13:08:20;;;;;;;;;;;;;;;6.50;100.00;100642.16;4965925;28;19965;-83
2021/10/08 13:10:55;;;;;;;;;;;;;;;6.66;100.00;100645.47;4966011;28;19962;-83
2021/10/08 13:13:22;;;;;;;;;;;;;;;6.75;100.00;100633.91;4966306;28;19922;-84
2021/10/08 13:15:47;;;;;;;;;;;;;;;6.80;100.00;100626.84;4964026;28;19919;-83
2021/10/08 13:18:14;;;;;;;;;;;;;;;6.85;100.00;100625.88;4964454;28;19918;-83
2021/10/08 13:20:43;;;;;;;;;;;;;;;6.94;100.00;100651.25;4965579;28;19919;-83
2021/10/08 13:23:09;;;;;;;;;;;;;;;7.06;100.00;100629.97;4965009;28;19976;-84
2021/10/08 13:25:38;;;;;;;;;;;;;;;7.10;100.00;100630.81;4964598;28;19922;-83
2021/10/08 13:28:03;;;;;;;;;;;;;;;7.15;100.00;100641.25;4965714;28;19929;-83
2021/10/08 13:30:28;;;;;;;;;;;;;;;7.18;100.00;100634.19;4965055;28;20378;-83
2021/10/08 13:32:54;;;;;;;;;;;;;;;7.22;100.00;100627.97;4962277;28;19926;-85
2021/10/08 13:35:19;;;;;;;;;;;;;;;7.23;100.00;100624.44;4965257;28;19923;-84
2021/10/08 13:37:44;;;;;;;;;;;;;;;7.30;100.00;100632.25;4964882;28;19922;-83
2021/10/08 13:40:10;;;;;;;;;;;;;;;7.35;100.00;100630.41;4964912;28;19926;-84
2021/10/08 13:42:35;;;;;;;;;;;;;;;7.33;100.00;100625.16;4964789;28;19922;-83
2021/10/08 13:45:00;;;;;;;;;;;;;;;7.36;100.00;100627.75;4965001;28;19925;-83
2021/10/08 13:47:25;;;;;;;;;;;;;;;7.43;100.00;100629.38;4963538;28;20005;-83
2021/10/08 13:49:51;;;;;;;;;;;;;;;7.51;100.00;100620.47;4987696;28;20400;-84
2021/10/08 13:52:16;;;;;;;;;;;;;;;7.51;100.00;100620.47;4964668;28;20009;-84
2021/10/08 13:54:41;;;;;;;;;;;;;;;7.56;100.00;100618.63;4964823;28;19920;-84
2021/10/08 13:57:07;;;;;;;;;;;;;;;7.60;100.00;100620.31;4965221;28;19969;-83
2021/10/08 13:59:32;;;;;;;;;;;;;;;7.61;100.00;100614.13;4963426;28;20255;-84
2021/10/08 14:04:35;;;;;;;;;;;;;;;7.67;100.00;100611.38;4963386;28;20013;-83
2021/10/08 14:07:16;;;;;;;;;;;;;;;7.68;100.00;100610.50;4965270;28;19972;-83
2021/10/08 14:12:25;;;;;;;;;;;;;;;7.73;100.00;100603.38;4965498;28;20012;-83
2021/10/08 14:14:50;;;;;;;;;;;;;;;7.76;100.00;100605.97;4963309;28;20364;-83
2021/10/08 14:17:16;;;;;;;;;;;;;;;7.81;100.00;100608.50;4961735;28;19922;-83
2021/10/08 14:19:41;;;;;;;;;;;;;;;7.80;100.00;100604.13;4962970;28;20018;-84
2021/10/08 14:22:06;;;;;;;;;;;;;;;7.83;100.00;100601.44;4963053;28;20455;-84
2021/10/08 14:24:31;;;;;;;;;;;;;;;7.85;100.00;100598.75;4963040;28;20341;-83
2021/10/08 14:26:57;;;;;;;;;;;;;;;5.88;100.00;100599.84;4962714;28;19941;-84
2021/10/08 14:29:22;;;;;;;;;;;;;;;5.51;100.00;100601.09;4964064;28;19997;-84
2021/10/08 14:31:47;;;;;;;;;;;;;;;5.03;100.00;100608.50;4963118;28;20027;-84
2021/10/08 14:34:12;;;;;;;;;;;;;;;4.77;100.00;100603.38;4961564;28;19922;-84
2021/10/08 14:36:38;;;;;;;;;;;;;;;4.64;100.00;100598.22;4963877;28;19925;-83
2021/10/08 14:39:03;;;;;;;;;;;;;;;4.47;100.00;100602.69;4963840;28;20386;-83
2021/10/08 14:41:29;;;;;;;;;;;;;;;4.27;100.00;100597.53;4963048;28;19918;-82
2021/10/08 14:43:54;;;;;;;;;;;;;;;4.26;100.00;100596.66;4964164;28;20282;-83
2021/10/08 14:46:19;;;;;;;;;;;;;;;4.13;100.00;100595.84;4962454;28;19981;-84
2021/10/08 14:48:45;;;;;;;;;;;;;;;4.16;100.00;100597.56;4962350;28;19930;-83
2021/10/08 14:51:12;;;;;;;;;;;;;;;4.09;100.00;100596.72;4963466;28;19930;-83
2021/10/08 14:53:39;;;;;;;;;;;;;;;4.01;100.00;100593.25;4962434;28;19915;-83
2021/10/08 14:58:44;;;;;;;;;;;;;;;3.98;100.00;100594.13;4962911;28;20426;-83
2021/10/08 15:01:10;;;;;;;;;;;;;;;3.92;100.00;100586.25;4963860;28;20445;-84
2021/10/08 15:03:35;;;;;;;;;;;;;;;3.85;100.00;100588.94;4962271;28;19922;-83
2021/10/08 15:06:00;;;;;;;;;;;;;;;3.82;100.00;100582.78;4964143;28;19930;-83
2021/10/08 15:08:26;;;;;;;;;;;;;;;3.76;100.00;100584.56;4963642;28;19922;-84
2021/10/08 15:10:51;;;;;;;;;;;;;;;3.76;100.00;100589.81;4963554;28;20374;-83
2021/10/08 15:13:16;;;;;;;;;;;;;;;3.61;100.00;100588.09;4963881;28;20012;-84
2021/10/08 15:15:42;;;;;;;;;;;;;;;3.64;100.00;100588.09;4963039;28;19989;-83
2021/10/08 15:18:07;;;;;;;;;;;;;;;3.53;100.00;100582.88;4962622;28;19933;-83
2021/10/08 15:20:32;;;;;;;;;;;;;;;3.57;100.00;100584.59;4962963;28;19925;-83
2021/10/08 15:22:58;;;;;;;;;;;;;;;3.60;100.00;100596.81;4963787;28;20017;-84
2021/10/08 15:25:23;;;;;;;;;;;;;;;3.65;100.00;100589.81;4962581;28;19941;-83
2021/10/08 15:27:52;;;;;;;;;;;;;;;3.51;100.00;100588.97;4971636;28;20001;-83
2021/10/08 15:30:18;;;;;;;;;;;;;;;3.41;100.00;100588.97;4970663;28;21007;-83
2021/10/08 15:32:44;;;;;;;;;;;;;;;3.30;100.00;100588.09;4968460;28;20254;-84
2021/10/08 15:35:09;;;;;;;;;;;;;;;3.30;100.00;100589.88;4969562;28;20012;-83
2021/10/08 15:37:36;;;;;;;;;;;;;;;3.31;100.00;100591.63;4970042;28;20416;-83
2021/10/08 15:40:01;;;;;;;;;;;;;;;3.16;99.32;100588.13;4968666;28;19925;-83
2021/10/08 15:42:26;;;;;;;;;;;;;;;3.16;98.99;100596.00;4969392;28;19918;-83
2021/10/08 15:44:52;;;;;;;;;;;;;;;3.09;98.91;100595.13;4968769;28;19925;-83
2021/10/08 15:47:17;;;;;;;;;;;;;;;3.08;99.10;100589.88;4968013;28;19932;-83
2021/10/08 15:49:43;;;;;;;;;;;;;;;3.05;98.32;100595.97;4969306;28;19922;-83
2021/10/08 15:52:09;;;;;;;;;;;;;;;2.99;97.82;100600.34;4969303;28;19973;-83
2021/10/08 15:54:34;;;;;;;;;;;;;;;2.96;98.24;100601.19;4968623;28;19914;-83
2021/10/08 15:56:59;;;;;;;;;;;;;;;2.92;97.86;100602.06;4968932;28;20020;-83
2021/10/08 15:59:25;;;;;;;;;;;;;;;2.95;97.49;100599.44;4972191;28;20290;-83
2021/10/08 16:01:50;;;;;;;;;;;;;;;2.91;97.28;100597.69;4968203;28;19918;-84
2021/10/08 16:04:15;;;;;;;;;;;;;;;2.98;98.04;100615.16;4967913;28;19995;-83
2021/10/08 16:06:40;;;;;;;;;;;;;;;3.01;98.70;100607.31;4969548;28;20445;-83
2021/10/08 16:09:06;;;;;;;;;;;;;;;3.51;100.00;100609.94;4969310;28;19969;-84
2021/10/08 16:11:31;;;;;;;;;;;;;;;3.95;100.00;100603.75;4969252;28;20428;-83
2021/10/08 16:13:58;;;;;;;;;;;;;;;3.99;100.00;100608.13;4970213;28;19986;-83
2021/10/08 16:16:26;;;;;;;;;;;;;;;4.08;100.00;100613.31;4969730;28;19925;-84
2021/10/08 16:18:56;;;;;;;;;;;;;;;3.73;100.00;100614.25;4967565;28;19927;-84
2021/10/08 16:21:23;;;;;;;;;;;;;;;3.72;100.00;100617.78;4967683;28;19914;-87
2021/10/08 16:23:49;;;;;;;;;;;;;;;3.99;100.00;100616.84;4974411;28;20020;-82
2021/10/08 16:26:15;;;;;;;;;;;;;;;3.93;100.00;100623.88;4977653;28;20362;-83
2021/10/08 16:28:40;;;;;;;;;;;;;;;3.92;100.00;100619.50;4978744;28;19926;-83
2021/10/08 16:31:05;;;;;;;;;;;;;;;3.93;100.00;100624.72;4978307;28;19929;-83
2021/10/08 16:33:30;;;;;;;;;;;;;;;4.00;100.00;100625.59;4976954;28;20301;-83
2021/10/08 16:35:57;;;;;;;;;;;;;;;3.95;100.00;100627.34;4977328;28;19918;-83
2021/10/08 16:38:23;;;;;;;;;;;;;;;3.91;100.00;100623.88;4969422;28;19929;-83
2021/10/08 16:40:48;;;;;;;;;;;;;;;3.94;100.00;100625.59;4973321;28;19922;-83
2021/10/08 16:43:14;;;;;;;;;;;;;;;3.99;100.00;100616.84;4974387;28;19918;-82
2021/10/08 16:45:40;;;;;;;;;;;;;;;3.96;100.00;100623.84;4975798;28;19925;-83
2021/10/08 16:48:07;;;;;;;;;;;;;;;3.98;100.00;100622.09;4974583;28;19922;-83
2021/10/08 16:50:33;;;;;;;;;;;;;;;3.97;100.00;100625.59;4975008;28;19973;-83
2021/10/08 16:52:58;;;;;;;;;;;;;;;3.96;100.00;100629.97;4974221;28;20267;-83
2021/10/08 16:55:24;;;;;;;;;;;;;;;4.03;100.00;100622.09;4975647;28;20008;-83
2021/10/08 16:57:51;;;;;;;;;;;;;;;4.03;100.00;100627.34;4974281;28;20012;-83
2021/10/08 17:00:17;;;;;;;;;;;;;;;4.04;100.00;100626.44;4970425;28;20343;-83
2021/10/08 17:02:43;;;;;;;;;;;;;;;4.04;100.00;100629.97;4973102;28;19922;-83
2021/10/08 17:05:08;;;;;;;;;;;;;;;4.01;100.00;100629.97;4975263;28;19968;-83
2021/10/08 17:07:34;;;;;;;;;;;;;;;4.07;100.00;100632.56;4974212;28;20272;-83
2021/10/08 17:10:00;;;;;;;;;;;;;;;4.03;100.00;100630.81;4975277;28;19918;-83
2021/10/08 17:12:25;;;;;;;;;;;;;;;4.05;100.00;100639.53;4973216;28;19922;-83
2021/10/08 17:14:50;;;;;;;;;;;;;;;4.10;100.00;100637.81;4972832;28;19969;-83
2021/10/08 17:17:16;;;;;;;;;;;;;;;4.11;100.00;100633.44;4972440;28;20377;-83
2021/10/08 17:19:46;;;;;;;;;;;;;;;4.07;100.00;100640.44;4973477;28;19929;-84
2021/10/08 17:22:12;;;;;;;;;;;;;;;4.13;100.00;100640.44;4973599;28;19925;-84
2021/10/08 17:24:38;;;;;;;;;;;;;;;4.07;100.00;100631.69;4973751;28;19918;-83
2021/10/08 17:29:46;;;;;;;;;;;;;;;4.09;100.00;100637.81;4974444;28;19922;-83
2021/10/08 17:34:57;;;;;;;;;;;;;;;4.13;100.00;100636.91;4974135;28;19960;-83
2021/10/08 17:37:24;;;;;;;;;;;;;;;4.18;100.00;100636.03;4971870;28;19918;-83
2021/10/08 17:39:49;;;;;;;;;;;;;;;4.17;100.00;100639.53;4971867;28;19922;-83
2021/10/08 17:42:15;;;;;;;;;;;;;;;4.18;100.00;100638.66;4971932;28;19929;-83
2021/10/08 17:44:40;;;;;;;;;;;;;;;4.16;100.00;100642.16;4966336;28;19918;-84
2021/10/08 17:47:06;;;;;;;;;;;;;;;4.14;100.00;100639.53;4970726;28;19922;-82
2021/10/08 17:49:32;;;;;;;;;;;;;;;4.13;100.00;100643.06;4970751;28;19926;-83
2021/10/08 17:51:57;;;;;;;;;;;;;;;4.14;100.00;100634.28;4967922;28;20239;-84
2021/10/08 17:54:22;;;;;;;;;;;;;;;4.08;100.00;100644.78;4971617;28;19988;-84
2021/10/08 17:56:48;;;;;;;;;;;;;;;4.10;100.00;100645.69;4971784;28;19926;-83
2021/10/08 17:59:14;;;;;;;;;;;;;;;4.18;100.00;100646.53;4973322;28;19922;-83
2021/10/08 18:01:39;;;;;;;;;;;;;;;4.19;100.00;100647.38;4972160;28;19926;-83
2021/10/08 18:04:10;;;;;;;;;;;;;;;4.18;100.00;100643.03;4971940;28;19933;-83
2021/10/08 18:06:35;;;;;;;;;;;;;;;4.19;100.00;100648.25;4970745;28;19922;-84
2021/10/08 18:09:01;;;;;;;;;;;;;;;4.23;100.00;100648.25;4971794;28;19922;-83
2021/10/08 18:11:27;;;;;;;;;;;;;;;4.21;100.00;100645.63;4965614;28;19977;-84
2021/10/08 18:13:53;;;;;;;;;;;;;;;4.22;100.00;100651.75;4972828;28;20314;-83
2021/10/08 18:16:18;;;;;;;;;;;;;;;4.23;100.00;100653.50;4969982;28;19985;-83
2021/10/08 18:18:44;;;;;;;;;;;;;;;4.26;100.00;100648.22;4968432;28;19922;-83
2021/10/08 18:21:09;;;;;;;;;;;;;;;4.19;100.00;100648.25;4972346;28;19945;-83
2021/10/08 18:23:35;;;;;;;;;;;;;;;4.23;100.00;100657.00;4965880;28;19926;-84
2021/10/08 18:26:02;;;;;;;;;;;;;;;4.19;100.00;100653.50;4971405;28;19926;-84
2021/10/08 18:28:27;;;;;;;;;;;;;;;4.19;100.00;100663.13;4970188;28;19918;-84
2021/10/08 18:31:01;;;;;;;;;;;;;;;4.22;100.00;100659.63;4971853;28;19929;-84
2021/10/08 18:33:26;;;;;;;;;;;;;;;4.21;100.00;100660.50;4970287;28;19950;-84
2021/10/08 18:35:52;;;;;;;;;;;;;;;4.23;100.00;100658.75;4971967;28;19969;-83
2021/10/08 18:38:17;;;;;;;;;;;;;;;4.30;100.00;100668.34;4971552;28;20429;-84
2021/10/08 18:40:42;;;;;;;;;;;;;;;4.23;100.00;100658.75;4971293;28;19918;-84
2021/10/08 18:43:08;;;;;;;;;;;;;;;4.26;100.00;100659.63;4968619;28;20005;-83
2021/10/08 18:45:33;;;;;;;;;;;;;;;4.24;100.00;100660.50;4971890;28;19922;-83
2021/10/08 18:47:58;;;;;;;;;;;;;;;4.31;100.00;100657.84;4969703;28;19932;-83
2021/10/08 18:50:27;;;;;;;;;;;;;;;4.24;100.00;100658.72;4971701;28;21416;-83
2021/10/08 18:52:52;;;;;;;;;;;;;;;4.26;100.00;100657.00;4971370;28;19918;-83
2021/10/08 18:55:18;;;;;;;;;;;;;;;4.28;100.00;100659.63;4971093;28;20016;-83
2021/10/08 18:57:44;;;;;;;;;;;;;;;4.30;100.00;100655.22;4970215;28;20290;-83
2021/10/08 19:00:10;;;;;;;;;;;;;;;4.28;100.00;100652.63;4972024;28;19918;-84
2021/10/08 19:02:36;;;;;;;;;;;;;;;4.29;100.00;100653.47;4971083;28;19965;-83
2021/10/08 19:05:01;;;;;;;;;;;;;;;4.27;100.00;100650.84;4971075;28;19922;-84
2021/10/08 19:07:28;;;;;;;;;;;;;;;4.37;100.00;100651.69;4972262;28;19945;-83